Time;durP1;ratioP1;P1;durP2;ratioP2;P2;SDS_P1;SDS_P2;PMS_P1;PMS_P2;Temp;Humidity;BMP_temperature;BMP_pressure;BME280_temperature;BME280_humidity;BME280_pressure;Samples;Min_cycle;Max_cycle;Signal;HPM_P1;HPM_P2
2021/11/17 02:26:54;;;;;;;15.47;10.33;;;6.70;99.90;;;;;;5088813;28;20522;-72
2021/11/17 02:38:12;;;;;;;16.93;11.10;;;6.70;99.90;;;;;;5109860;27;20586;-72
2021/11/17 02:44:04;;;;;;;15.77;13.17;;;6.60;99.90;;;;;;5130054;27;21067;-72
2021/11/17 02:52:45;;;;;;;19.43;13.17;;;6.60;99.90;;;;;;5068870;28;20593;-72
2021/11/17 02:55:37;;;;;;;20.90;13.90;;;6.50;99.90;;;;;;5070723;28;20441;-72
2021/11/17 03:03:51;;;;;;;21.40;15.97;;;6.60;99.90;;;;;;5067055;28;20524;-72
2021/11/17 03:09:12;;;;;;;25.53;16.83;;;6.60;99.90;;;;;;5109297;27;20671;-69
2021/11/17 03:17:33;;;;;;;23.10;17.60;;;6.60;99.90;;;;;;5069023;28;20508;-71
2021/11/17 03:23:34;;;;;;;24.87;18.83;;;6.60;99.90;;;;;;5089014;28;20552;-71
2021/11/17 03:26:39;;;;;;;24.17;19.63;;;6.60;99.90;;;;;;5088212;28;20388;-72
2021/11/17 03:37:43;;;;;;;24.53;20.27;;;6.60;99.90;;;;;;5067772;28;20600;-67
2021/11/17 03:59:47;;;;;;;26.73;19.43;;;6.50;99.90;;;;;;5106436;27;20526;-68
2021/11/17 04:05:29;;;;;;;26.97;19.40;;;6.60;99.90;;;;;;5109454;27;20597;-68
2021/11/17 04:11:36;;;;;;;27.37;19.33;;;6.60;99.90;;;;;;5090352;27;20511;-68
2021/11/17 04:17:24;;;;;;;24.33;19.00;;;6.60;99.90;;;;;;5088938;27;20523;-66
2021/11/17 04:20:13;;;;;;;25.60;17.37;;;6.60;99.90;;;;;;5087801;28;20408;-66
2021/11/17 04:23:13;;;;;;;24.33;18.40;;;6.60;99.90;;;;;;5088075;28;20385;-66
2021/11/17 04:26:10;;;;;;;25.27;19.00;;;6.60;99.90;;;;;;5088272;28;20492;-67
2021/11/17 04:29:18;;;;;;;24.87;16.63;;;6.60;99.90;;;;;;5087428;28;20439;-66
2021/11/17 04:34:47;;;;;;;24.50;18.00;;;6.60;99.90;;;;;;5109524;27;20539;-68
2021/11/17 04:40:33;;;;;;;25.63;18.77;;;6.60;99.90;;;;;;5113207;27;20714;-69
2021/11/17 04:49:06;;;;;;;27.70;18.73;;;6.60;99.90;;;;;;5121803;27;20527;-70
2021/11/17 04:51:58;;;;;;;25.97;18.93;;;6.60;99.90;;;;;;5068134;28;20546;-68
2021/11/17 04:54:58;;;;;;;32.90;19.80;;;6.60;99.90;;;;;;5080827;28;20858;-68
2021/11/17 05:03:34;;;;;;;28.70;19.43;;;6.70;99.90;;;;;;5039324;27;21073;-67
2021/11/17 05:14:47;;;;;;;29.47;20.73;;;6.70;99.90;;;;;;5129383;27;20567;-67
2021/11/17 05:20:09;;;;;;;32.93;22.10;;;6.70;99.90;;;;;;5116887;27;20548;-68
2021/11/17 05:23:15;;;;;;;30.70;21.70;;;6.70;99.90;;;;;;5067766;28;20898;-67
2021/11/17 05:26:12;;;;;;;39.27;22.90;;;6.70;99.90;;;;;;5062734;28;20413;-68
2021/11/17 05:36:55;;;;;;;31.00;20.27;;;6.70;99.90;;;;;;5099225;27;20545;-69
2021/11/17 05:39:56;;;;;;;39.60;25.93;;;6.70;99.90;;;;;;5028737;28;20787;-66
2021/11/17 05:43:02;;;;;;;36.10;22.13;;;6.70;99.90;;;;;;5046723;28;20427;-66
2021/11/17 05:48:53;;;;;;;31.90;21.50;;;6.80;99.90;;;;;;5049010;27;21023;-67
2021/11/17 05:51:35;;;;;;;36.20;21.00;;;6.80;99.90;;;;;;5045196;28;21014;-68
2021/11/17 05:57:20;;;;;;;30.80;20.67;;;6.80;99.90;;;;;;5090693;27;20582;-67
2021/11/17 06:03:10;;;;;;;36.30;20.70;;;6.80;99.90;;;;;;5116987;27;20569;-69
2021/11/17 06:11:02;;;;;;;33.60;21.67;;;6.90;99.90;;;;;;5082485;27;20562;-68
2021/11/17 06:13:29;;;;;;;29.73;21.87;;;6.80;99.90;;;;;;5066696;28;20452;-67
2021/11/17 06:15:56;;;;;;;37.83;21.23;;;6.90;99.90;;;;;;5068836;28;20440;-68
2021/11/17 06:18:27;;;;;;;32.27;22.67;;;6.90;99.90;;;;;;5069061;28;20401;-68
2021/11/17 06:20:54;;;;;;;35.63;22.90;;;6.90;99.90;;;;;;5068437;28;20414;-68
2021/11/17 06:23:28;;;;;;;31.13;19.87;;;6.90;99.90;;;;;;5068211;28;20453;-68
2021/11/17 06:25:56;;;;;;;31.20;20.00;;;6.90;99.90;;;;;;5067710;28;20409;-69
2021/11/17 06:28:24;;;;;;;34.07;22.70;;;6.80;99.90;;;;;;5065115;28;20451;-68
2021/11/17 06:30:53;;;;;;;28.80;19.67;;;6.80;99.90;;;;;;5067330;28;20498;-67
2021/11/17 06:33:21;;;;;;;27.03;19.27;;;6.80;99.90;;;;;;5067299;28;20456;-67
2021/11/17 06:35:47;;;;;;;22.73;17.00;;;6.70;99.90;;;;;;5068179;28;20395;-68
2021/11/17 06:38:14;;;;;;;23.40;16.67;;;6.70;99.90;;;;;;5068383;28;20410;-68
2021/11/17 06:40:49;;;;;;;29.77;18.43;;;6.80;99.90;;;;;;5067462;28;20461;-68
2021/11/17 06:43:17;;;;;;;26.00;18.80;;;6.80;99.90;;;;;;5067222;28;20417;-67
2021/11/17 06:45:52;;;;;;;24.70;17.80;;;6.70;99.90;;;;;;5063786;28;20432;-68
2021/11/17 06:48:19;;;;;;;23.23;16.83;;;6.70;99.90;;;;;;5055952;28;20426;-67
2021/11/17 06:50:48;;;;;;;23.10;16.53;;;6.80;99.90;;;;;;5062809;28;20458;-68
2021/11/17 06:53:17;;;;;;;23.17;16.67;;;6.80;99.90;;;;;;5063457;28;20405;-69
2021/11/17 06:55:43;;;;;;;25.70;17.90;;;6.80;99.90;;;;;;5065555;28;20397;-68
2021/11/17 06:58:09;;;;;;;24.30;17.87;;;6.80;99.90;;;;;;5065800;28;20413;-67
2021/11/17 07:00:39;;;;;;;22.17;16.93;;;6.80;99.90;;;;;;5048991;28;20458;-69
2021/11/17 07:03:05;;;;;;;22.10;17.33;;;6.80;99.90;;;;;;5061113;28;20457;-70
2021/11/17 07:05:31;;;;;;;26.97;17.33;;;6.90;99.90;;;;;;5064929;28;20426;-68
2021/11/17 07:08:00;;;;;;;23.93;19.00;;;6.90;99.90;;;;;;5052665;28;20210;-67
2021/11/17 07:10:28;;;;;;;26.60;18.50;;;6.90;99.90;;;;;;5054158;28;20504;-69
2021/11/17 07:12:55;;;;;;;25.80;18.80;;;7.00;99.90;;;;;;5047709;28;20893;-69
2021/11/17 07:15:25;;;;;;;24.33;18.23;;;7.00;99.90;;;;;;5048356;28;20415;-69
2021/11/17 07:17:53;;;;;;;28.53;20.80;;;7.00;99.90;;;;;;5050443;28;20427;-69
2021/11/17 07:20:21;;;;;;;31.60;22.43;;;7.10;99.90;;;;;;5051284;28;20908;-69
2021/11/17 07:22:49;;;;;;;30.40;21.17;;;7.10;99.90;;;;;;5038065;28;20412;-66
2021/11/17 07:25:19;;;;;;;27.33;20.70;;;7.10;99.90;;;;;;5034457;28;20454;-67
2021/11/17 07:27:46;;;;;;;29.40;21.37;;;7.20;99.90;;;;;;5053104;28;20953;-67
2021/11/17 07:30:20;;;;;;;26.93;19.27;;;7.20;99.90;;;;;;5033317;28;20463;-67
2021/11/17 07:32:46;;;;;;;26.97;18.43;;;7.20;99.90;;;;;;5034442;28;20387;-68
2021/11/17 07:35:13;;;;;;;31.90;20.43;;;7.20;99.90;;;;;;5034704;28;21006;-67
2021/11/17 07:37:41;;;;;;;25.90;19.67;;;7.20;99.90;;;;;;5041043;28;20450;-67
2021/11/17 07:40:12;;;;;;;26.77;19.10;;;7.30;99.90;;;;;;5035750;28;20426;-69
2021/11/17 07:42:46;;;;;;;27.07;20.40;;;7.30;99.90;;;;;;5045042;28;20765;-68
2021/11/17 07:45:15;;;;;;;24.77;20.60;;;7.40;99.90;;;;;;5044182;28;20431;-69
2021/11/17 07:47:42;;;;;;;26.10;21.50;;;7.40;99.90;;;;;;5052798;28;20464;-68
2021/11/17 07:50:14;;;;;;;24.77;19.50;;;7.40;99.90;;;;;;5037504;28;20499;-67
2021/11/17 07:52:41;;;;;;;26.20;21.70;;;7.50;99.90;;;;;;5045247;28;20434;-66
2021/11/17 07:55:09;;;;;;;29.93;20.00;;;7.50;99.90;;;;;;5043199;28;20476;-66
2021/11/17 07:57:38;;;;;;;28.53;20.50;;;7.60;99.90;;;;;;5044098;28;20433;-70
2021/11/17 08:00:15;;;;;;;24.60;18.80;;;7.60;99.90;;;;;;5035054;28;20478;-70
2021/11/17 08:02:42;;;;;;;24.10;19.73;;;7.70;99.90;;;;;;5050662;28;20840;-68
2021/11/17 08:05:09;;;;;;;22.97;18.50;;;7.70;99.90;;;;;;5042835;28;20418;-67
2021/11/17 08:07:38;;;;;;;24.60;18.60;;;7.80;99.90;;;;;;5051435;28;20952;-67
2021/11/17 08:10:11;;;;;;;20.50;18.13;;;7.80;99.90;;;;;;5042058;28;20469;-67
2021/11/17 08:12:37;;;;;;;23.90;18.67;;;7.90;99.90;;;;;;5045287;28;20783;-68
2021/11/17 08:15:05;;;;;;;22.80;17.37;;;7.90;99.90;;;;;;5039407;28;20423;-67
2021/11/17 08:17:34;;;;;;;21.20;16.20;;;8.00;99.90;;;;;;5035920;28;20429;-68
2021/11/17 08:20:10;;;;;;;17.00;14.87;;;8.10;99.90;;;;;;5039703;28;20473;-67
2021/11/17 08:22:36;;;;;;;19.10;15.07;;;8.20;99.90;;;;;;5044569;28;20444;-68
2021/11/17 08:25:02;;;;;;;23.23;17.03;;;8.30;99.90;;;;;;5038286;28;20916;-68
2021/11/17 08:27:33;;;;;;;19.63;14.93;;;8.40;99.90;;;;;;5039007;28;20466;-69
2021/11/17 08:30:08;;;;;;;21.07;15.50;;;8.40;99.90;;;;;;5037043;28;20454;-68
2021/11/17 08:32:41;;;;;;;22.60;15.97;;;8.50;99.90;;;;;;5040459;28;20420;-68
2021/11/17 08:35:11;;;;;;;18.37;14.80;;;8.50;99.90;;;;;;5031735;28;20518;-67
2021/11/17 08:37:38;;;;;;;20.90;15.20;;;8.50;99.90;;;;;;5044666;28;20952;-68
2021/11/17 08:40:11;;;;;;;17.37;15.17;;;8.50;99.90;;;;;;5040710;28;20433;-67
2021/11/17 08:42:37;;;;;;;17.27;13.37;;;8.50;99.90;;;;;;5046331;28;20430;-69
2021/11/17 08:45:06;;;;;;;20.50;15.40;;;8.50;99.90;;;;;;5038053;28;20434;-67
2021/11/17 08:47:34;;;;;;;16.30;14.50;;;8.50;99.90;;;;;;5051859;28;20930;-68
2021/11/17 08:50:00;;;;;;;20.53;15.10;;;8.50;99.90;;;;;;5042729;28;20870;-68
2021/11/17 08:52:27;;;;;;;18.87;15.43;;;8.40;99.90;;;;;;5043345;28;20465;-68
2021/11/17 08:54:58;;;;;;;19.40;14.87;;;8.40;99.90;;;;;;5044299;28;20825;-67
2021/11/17 08:57:24;;;;;;;17.10;13.87;;;8.40;99.90;;;;;;5034638;28;20435;-68
2021/11/17 09:00:08;;;;;;;17.67;13.70;;;8.30;99.90;;;;;;5035218;28;20445;-68
2021/11/17 09:02:40;;;;;;;16.50;13.80;;;8.30;99.90;;;;;;5031669;28;20184;-67
2021/11/17 09:05:13;;;;;;;16.13;13.63;;;8.30;99.90;;;;;;5039143;28;20938;-68
2021/11/17 09:07:44;;;;;;;16.20;13.77;;;8.30;99.90;;;;;;5035634;28;20422;-68
2021/11/17 09:10:15;;;;;;;18.60;15.60;;;8.30;99.90;;;;;;5043402;28;20526;-68
2021/11/17 09:12:41;;;;;;;21.23;16.87;;;8.30;99.90;;;;;;5035306;28;20422;-68
2021/11/17 09:15:09;;;;;;;18.13;14.60;;;8.40;99.90;;;;;;5041828;28;20410;-67
2021/11/17 09:17:37;;;;;;;18.23;15.27;;;8.40;99.90;;;;;;5032515;28;20426;-68
2021/11/17 09:20:17;;;;;;;16.30;14.20;;;8.50;99.90;;;;;;5032423;28;20445;-69
2021/11/17 09:22:43;;;;;;;19.27;14.00;;;8.50;99.90;;;;;;5040538;28;20418;-69
2021/11/17 09:25:12;;;;;;;15.40;13.27;;;8.50;99.90;;;;;;5042115;28;20994;-70
2021/11/17 09:27:41;;;;;;;15.73;14.03;;;8.50;99.90;;;;;;5037863;28;20429;-69
2021/11/17 09:30:12;;;;;;;16.20;13.30;;;8.50;99.90;;;;;;5039199;28;20505;-71
2021/11/17 09:32:42;;;;;;;16.97;13.07;;;8.50;99.90;;;;;;5039255;28;20829;-68
2021/11/17 09:35:13;;;;;;;19.00;14.17;;;8.50;99.90;;;;;;5037583;28;20421;-68
2021/11/17 09:37:45;;;;;;;19.90;13.53;;;8.60;99.90;;;;;;5043109;28;20421;-69
2021/11/17 09:40:18;;;;;;;18.33;12.43;;;8.60;99.90;;;;;;5033601;28;20496;-69
2021/11/17 09:42:45;;;;;;;16.13;12.23;;;8.50;99.90;;;;;;5038096;28;20433;-68
2021/11/17 09:45:12;;;;;;;16.70;12.30;;;8.40;99.90;;;;;;5033983;28;20492;-68
2021/11/17 09:47:42;;;;;;;16.07;12.83;;;8.40;99.90;;;;;;5040760;28;20751;-69
2021/11/17 09:53:25;;;;;;;19.90;13.20;;;8.50;99.90;;;;;;5113356;27;20594;-68
2021/11/17 09:56:01;;;;;;;20.43;15.00;;;8.50;99.90;;;;;;5068068;28;20481;-69
2021/11/17 09:58:34;;;;;;;15.80;12.63;;;8.60;99.90;;;;;;5082917;28;20560;-70
2021/11/17 10:03:52;;;;;;;17.77;13.83;;;8.50;99.90;;;;;;5101666;27;20538;-69
2021/11/17 10:15:03;;;;;;;16.00;11.90;;;8.70;99.90;;;;;;5090397;27;20582;-68
2021/11/17 10:22:50;;;;;;;18.70;14.50;;;8.60;99.90;;;;;;5052145;28;20541;-67
2021/11/17 10:25:22;;;;;;;19.07;13.67;;;8.70;99.90;;;;;;5014035;28;20469;-68
2021/11/17 10:27:59;;;;;;;16.53;12.90;;;8.70;99.90;;;;;;5022086;28;20424;-67
2021/11/17 10:33:25;;;;;;;16.90;13.70;;;8.80;99.90;;;;;;5062379;27;20527;-68
2021/11/17 10:38:47;;;;;;;17.57;13.17;;;8.80;99.90;;;;;;5095328;27;20888;-71
2021/11/17 10:41:26;;;;;;;15.47;12.13;;;8.80;99.90;;;;;;5092213;28;20427;-69
2021/11/17 10:43:58;;;;;;;16.90;12.87;;;8.70;99.90;;;;;;5093795;28;20881;-68
2021/11/17 10:46:30;;;;;;;14.40;12.73;;;8.80;99.90;;;;;;5102398;28;21100;-67
2021/11/17 10:49:11;;;;;;;14.50;12.77;;;8.80;99.90;;;;;;5093313;28;20949;-69
2021/11/17 10:52:11;;;;;;;17.63;12.53;;;8.80;99.90;;;;;;5107909;28;20515;-68
2021/11/17 10:54:53;;;;;;;14.30;11.80;;;8.80;99.90;;;;;;5101985;28;20436;-69
2021/11/17 10:57:25;;;;;;;15.47;13.27;;;8.80;99.90;;;;;;5104229;28;20459;-67
2021/11/17 10:59:55;;;;;;;17.93;12.70;;;8.90;99.90;;;;;;5100262;28;20448;-69
2021/11/17 11:02:24;;;;;;;14.97;11.80;;;8.90;99.90;;;;;;5095877;28;20558;-68
2021/11/17 11:05:05;;;;;;;17.70;14.20;;;8.90;99.90;;;;;;5098436;28;20479;-70
2021/11/17 11:08:13;;;;;;;19.60;12.80;;;8.90;99.90;;;;;;5095284;28;20427;-68
2021/11/17 11:10:47;;;;;;;14.60;11.40;;;8.90;99.90;;;;;;5099292;28;20427;-68
2021/11/17 11:13:35;;;;;;;16.83;13.77;;;8.90;99.90;;;;;;5104381;28;20552;-69
2021/11/17 11:24:33;;;;;;;21.20;14.27;;;9.00;99.90;;;;;;5062695;28;20572;-68
2021/11/17 11:29:42;;;;;;;18.47;14.60;;;9.00;99.90;;;;;;5101949;27;20565;-68
2021/11/17 11:41:10;;;;;;;25.10;15.37;;;9.00;99.90;;;;;;5099757;27;20599;-67
2021/11/17 11:43:40;;;;;;;20.30;14.80;;;9.00;99.90;;;;;;5090480;28;20474;-68
2021/11/17 11:46:30;;;;;;;20.57;15.73;;;8.90;99.90;;;;;;5083396;28;20421;-69
2021/11/17 11:49:19;;;;;;;21.87;15.47;;;8.90;99.90;;;;;;5098911;28;20432;-68
2021/11/17 11:52:09;;;;;;;20.60;16.30;;;8.90;99.90;;;;;;5076810;28;20683;-67
2021/11/17 12:00:30;;;;;;;25.73;17.37;;;8.90;99.90;;;;;;5038403;28;20594;-68
2021/11/17 12:06:14;;;;;;;20.83;16.87;;;8.80;99.90;;;;;;5096386;27;20617;-68
2021/11/17 12:09:04;;;;;;;20.13;16.30;;;8.90;99.90;;;;;;5093200;28;20911;-68
2021/11/17 12:11:31;;;;;;;22.67;16.87;;;8.90;99.90;;;;;;5101276;28;20429;-68
2021/11/17 12:22:36;;;;;;;23.23;17.30;;;8.90;99.90;;;;;;5124139;27;20618;-68
2021/11/17 12:25:29;;;;;;;25.23;18.40;;;9.00;99.90;;;;;;5082599;28;20416;-67
2021/11/17 12:28:17;;;;;;;27.67;19.60;;;8.90;99.90;;;;;;5082451;28;20729;-68
2021/11/17 12:30:52;;;;;;;28.60;18.97;;;8.90;99.90;;;;;;5082454;28;20543;-68
2021/11/17 12:33:23;;;;;;;23.93;17.77;;;8.90;99.90;;;;;;5083771;28;20502;-67
2021/11/17 12:36:31;;;;;;;25.33;19.70;;;8.90;99.90;;;;;;5086127;28;20519;-68
2021/11/17 12:39:16;;;;;;;26.07;20.60;;;8.90;99.90;;;;;;5083821;28;20441;-69
2021/11/17 12:41:44;;;;;;;25.90;19.87;;;8.90;99.90;;;;;;5082954;28;20468;-68
2021/11/17 12:44:28;;;;;;;25.87;20.90;;;8.90;99.90;;;;;;5080499;28;20984;-68
2021/11/17 12:47:17;;;;;;;31.27;22.37;;;8.90;99.90;;;;;;5082161;28;20542;-69
2021/11/17 12:50:08;;;;;;;30.33;19.80;;;8.90;99.90;;;;;;5078828;28;20428;-69
2021/11/17 12:52:49;;;;;;;25.30;19.43;;;8.90;99.90;;;;;;5085163;28;20957;-69
2021/11/17 12:58:07;;;;;;;26.37;19.03;;;8.90;99.90;;;;;;5057472;28;20549;-67
2021/11/17 13:00:56;;;;;;;31.60;20.23;;;8.90;99.90;;;;;;5018501;28;20871;-71
2021/11/17 13:09:30;;;;;;;28.20;19.97;;;8.90;99.90;;;;;;5117588;27;20519;-68
2021/11/17 13:12:17;;;;;;;23.23;19.50;;;8.90;99.90;;;;;;5061970;28;20522;-69
2021/11/17 13:26:11;;;;;;;31.90;20.07;;;8.90;99.90;;;;;;5114895;27;20552;-70
2021/11/17 13:28:53;;;;;;;20.47;16.57;;;8.90;99.90;;;;;;5080319;28;20811;-68
2021/11/17 13:31:35;;;;;;;19.17;16.00;;;8.80;99.90;;;;;;5081004;28;20430;-68
2021/11/17 13:34:06;;;;;;;15.77;14.07;;;8.90;99.90;;;;;;5089392;28;20425;-68
2021/11/17 13:39:38;;;;;;;19.17;14.30;;;8.80;99.90;;;;;;5038153;28;20268;-68
2021/11/17 13:42:04;;;;;;;18.30;13.90;;;8.80;99.90;;;;;;5032903;28;20502;-68
2021/11/17 13:44:44;;;;;;;16.40;14.37;;;8.90;99.90;;;;;;5025655;28;20424;-68
2021/11/17 13:47:18;;;;;;;16.20;12.27;;;8.90;99.90;;;;;;5028606;28;20408;-68
2021/11/17 13:49:49;;;;;;;17.77;12.47;;;8.90;99.90;;;;;;5017418;28;20982;-69
2021/11/17 13:52:20;;;;;;;15.17;13.50;;;8.90;99.90;;;;;;5020944;28;20416;-68
2021/11/17 13:54:51;;;;;;;14.53;13.00;;;8.90;99.90;;;;;;5026138;28;20631;-68
2021/11/17 13:57:18;;;;;;;16.63;12.20;;;8.90;99.90;;;;;;5027880;28;20977;-69
2021/11/17 13:59:55;;;;;;;15.90;13.40;;;8.90;99.90;;;;;;5028491;28;20456;-68
2021/11/17 14:02:21;;;;;;;14.07;12.57;;;8.90;99.90;;;;;;5027329;28;20798;-67
2021/11/17 14:04:46;;;;;;;17.00;13.07;;;8.90;99.90;;;;;;5023468;28;20513;-67
2021/11/17 14:07:16;;;;;;;19.67;14.97;;;8.90;99.90;;;;;;5010981;28;20441;-67
2021/11/17 14:09:42;;;;;;;18.30;14.00;;;8.90;99.90;;;;;;5016001;28;20179;-69
2021/11/17 14:12:08;;;;;;;18.90;14.70;;;8.90;99.90;;;;;;5008450;28;20471;-67
2021/11/17 14:14:36;;;;;;;22.00;15.50;;;8.90;99.90;;;;;;5012529;28;20417;-69
2021/11/17 14:17:04;;;;;;;21.03;17.20;;;8.90;99.90;;;;;;5024583;28;20420;-67
2021/11/17 14:19:32;;;;;;;23.37;18.27;;;8.90;99.90;;;;;;5020128;28;20420;-68
2021/11/17 14:21:59;;;;;;;24.87;18.00;;;9.00;99.90;;;;;;5025457;28;20417;-68
2021/11/17 14:24:27;;;;;;;28.30;18.70;;;9.00;99.90;;;;;;5022114;28;20967;-68
2021/11/17 14:26:53;;;;;;;28.17;20.80;;;9.00;99.90;;;;;;5027494;28;20509;-69
2021/11/17 14:29:25;;;;;;;25.97;18.97;;;9.00;99.90;;;;;;5014798;28;20471;-67
2021/11/17 14:31:57;;;;;;;34.47;20.77;;;9.00;99.90;;;;;;5009298;28;20413;-72
2021/11/17 14:34:23;;;;;;;31.93;21.67;;;9.00;99.90;;;;;;5013772;28;20413;-68
2021/11/17 14:36:52;;;;;;;31.27;23.70;;;9.00;99.90;;;;;;5014629;28;20420;-69
2021/11/17 14:39:22;;;;;;;33.97;25.83;;;9.00;99.90;;;;;;5018393;28;20437;-68
2021/11/17 14:41:49;;;;;;;37.43;25.70;;;9.00;99.90;;;;;;5014282;28;20424;-68
2021/11/17 14:44:15;;;;;;;36.10;26.43;;;9.00;99.90;;;;;;5009030;28;20462;-69
2021/11/17 14:46:42;;;;;;;33.80;25.80;;;9.00;99.90;;;;;;5013478;28;20466;-68
2021/11/17 14:49:08;;;;;;;40.97;25.50;;;9.00;99.90;;;;;;5007020;28;20927;-69
2021/11/17 14:51:34;;;;;;;34.43;23.70;;;9.00;99.90;;;;;;5007655;28;20518;-69
2021/11/17 14:54:00;;;;;;;37.60;25.80;;;9.00;99.90;;;;;;4992763;28;20437;-69
2021/11/17 14:56:29;;;;;;;37.53;25.20;;;9.00;99.90;;;;;;4993264;28;20422;-69
2021/11/17 14:58:59;;;;;;;39.60;26.10;;;9.00;99.90;;;;;;4994704;28;20511;-69
2021/11/17 15:01:31;;;;;;;45.33;26.70;;;9.10;99.90;;;;;;4996850;28;20426;-69
2021/11/17 15:03:58;;;;;;;46.83;28.47;;;9.10;99.90;;;;;;5008546;28;20463;-69
2021/11/17 15:06:26;;;;;;;43.53;27.10;;;9.10;99.90;;;;;;5008216;28;20787;-71
2021/11/17 15:08:54;;;;;;;41.00;25.67;;;9.10;99.90;;;;;;5009766;28;20814;-69
2021/11/17 15:11:22;;;;;;;40.57;27.50;;;9.10;99.90;;;;;;5000279;28;20497;-69
2021/11/17 15:13:50;;;;;;;40.93;26.43;;;9.10;99.90;;;;;;5006457;28;20421;-69
2021/11/17 15:16:20;;;;;;;40.83;27.30;;;9.10;99.90;;;;;;5008872;28;20430;-69
2021/11/17 15:18:48;;;;;;;38.23;25.87;;;9.20;99.90;;;;;;5009155;28;20532;-68
2021/11/17 15:21:20;;;;;;;40.90;28.17;;;9.20;99.90;;;;;;4994417;28;20425;-68
2021/11/17 15:23:49;;;;;;;43.23;27.87;;;9.20;99.90;;;;;;4997617;28;20431;-68
2021/11/17 15:26:18;;;;;;;44.33;28.07;;;9.20;99.90;;;;;;4999366;28;20520;-68
2021/11/17 15:28:50;;;;;;;42.37;27.60;;;9.20;99.90;;;;;;4996878;28;20979;-69
2021/11/17 15:31:21;;;;;;;41.90;26.27;;;9.20;99.90;;;;;;5011880;28;20916;-69
2021/11/17 15:33:49;;;;;;;47.10;29.03;;;9.20;99.90;;;;;;5008351;28;20520;-69
2021/11/17 15:36:16;;;;;;;47.20;28.60;;;9.20;99.90;;;;;;4994159;28;20481;-68
2021/11/17 15:38:52;;;;;;;53.93;29.27;;;9.20;99.90;;;;;;4996058;28;21081;-68
2021/11/17 15:41:23;;;;;;;47.77;30.90;;;9.20;99.90;;;;;;4993619;28;20456;-69
2021/11/17 15:43:51;;;;;;;57.27;33.80;;;9.30;99.90;;;;;;5004544;28;20422;-68
2021/11/17 15:46:17;;;;;;;57.60;32.27;;;9.30;99.90;;;;;;5001383;28;20442;-68
2021/11/17 15:48:43;;;;;;;54.80;32.43;;;9.30;99.90;;;;;;4998107;28;20479;-68
2021/11/17 15:53:46;;;;;;;55.10;31.33;;;9.30;99.90;;;;;;5068313;28;20659;-67
2021/11/17 15:56:13;;;;;;;52.13;30.73;;;9.30;99.90;;;;;;5068215;28;20514;-68
2021/11/17 15:58:40;;;;;;;52.73;32.50;;;9.30;99.90;;;;;;5055675;28;20499;-69
2021/11/17 16:01:09;;;;;;;53.47;31.87;;;9.30;99.90;;;;;;5050447;28;20435;-68
2021/11/17 16:03:35;;;;;;;54.50;31.77;;;9.30;99.90;;;;;;5048481;28;20422;-68
2021/11/17 16:06:03;;;;;;;52.23;31.03;;;9.30;99.90;;;;;;5049304;28;20509;-69
2021/11/17 16:08:30;;;;;;;55.23;31.40;;;9.30;99.90;;;;;;5055563;28;20226;-68
2021/11/17 16:11:07;;;;;;;47.77;31.00;;;9.40;99.90;;;;;;5056556;28;20521;-68
2021/11/17 16:13:34;;;;;;;49.13;30.03;;;9.40;99.90;;;;;;5061908;28;20927;-68
2021/11/17 16:16:00;;;;;;;47.73;29.97;;;9.40;99.90;;;;;;5052355;28;20972;-68
2021/11/17 16:18:26;;;;;;;54.70;32.73;;;9.40;99.90;;;;;;5067753;28;20703;-69
2021/11/17 16:20:58;;;;;;;51.47;31.67;;;9.40;99.90;;;;;;5054557;28;20421;-68
2021/11/17 16:26:09;;;;;;;50.90;34.53;;;9.40;99.90;;;;;;5068868;28;20607;-69
2021/11/17 16:28:39;;;;;;;53.57;32.40;;;9.50;99.90;;;;;;5061645;28;20439;-67
2021/11/17 16:31:07;;;;;;;51.57;32.20;;;9.50;99.90;;;;;;5067007;28;20416;-68
2021/11/17 16:33:33;;;;;;;56.63;31.23;;;9.50;99.90;;;;;;5068778;28;20391;-68
2021/11/17 16:36:02;;;;;;;59.50;33.00;;;9.50;99.90;;;;;;5068313;28;20404;-68
2021/11/17 16:38:28;;;;;;;61.00;33.83;;;9.50;99.90;;;;;;5068422;28;20903;-67
2021/11/17 16:40:55;;;;;;;61.00;31.30;;;9.50;99.90;;;;;;5055302;28;20938;-68
2021/11/17 16:43:21;;;;;;;49.97;32.30;;;9.50;99.90;;;;;;5048762;28;20479;-68
2021/11/17 16:45:48;;;;;;;57.40;32.60;;;9.60;99.90;;;;;;5048767;28;20942;-67
2021/11/17 16:48:14;;;;;;;56.57;32.90;;;9.60;99.90;;;;;;5048428;28;20401;-67
2021/11/17 16:50:43;;;;;;;46.63;33.77;;;9.60;99.90;;;;;;5062122;28;20424;-66
2021/11/17 16:53:10;;;;;;;58.43;31.87;;;9.60;99.90;;;;;;5068481;28;20491;-67
2021/11/17 16:55:38;;;;;;;50.40;30.00;;;9.60;99.90;;;;;;5067372;28;20388;-69
2021/11/17 16:58:04;;;;;;;56.93;29.57;;;9.70;99.90;;;;;;5054073;28;20440;-68
2021/11/17 17:00:36;;;;;;;57.50;31.50;;;9.70;99.90;;;;;;5048621;28;20445;-68
2021/11/17 17:03:03;;;;;;;54.80;32.13;;;9.70;99.90;;;;;;5048210;28;20404;-68
2021/11/17 17:05:29;;;;;;;51.13;32.40;;;9.70;99.90;;;;;;5047993;28;20452;-67
2021/11/17 17:07:54;;;;;;;46.43;30.03;;;9.70;99.90;;;;;;5048146;28;20902;-68
2021/11/17 17:10:24;;;;;;;46.50;30.13;;;9.70;99.90;;;;;;5048273;28;20647;-69
2021/11/17 17:12:50;;;;;;;48.03;27.60;;;9.70;99.90;;;;;;5048080;28;20165;-67
2021/11/17 17:15:19;;;;;;;51.30;31.30;;;9.70;99.90;;;;;;5048681;28;20420;-68
2021/11/17 17:17:46;;;;;;;48.80;30.83;;;9.70;99.90;;;;;;5048111;28;20479;-66
2021/11/17 17:20:16;;;;;;;51.30;33.50;;;9.70;99.90;;;;;;5047857;28;20423;-68
2021/11/17 17:22:43;;;;;;;46.00;30.70;;;9.70;99.90;;;;;;5047831;28;20411;-67
2021/11/17 17:25:12;;;;;;;42.97;28.73;;;9.70;99.90;;;;;;5047895;28;20472;-67
2021/11/17 17:27:39;;;;;;;40.00;28.60;;;9.70;99.90;;;;;;5049160;28;20396;-67
2021/11/17 17:30:07;;;;;;;47.17;31.33;;;9.70;99.90;;;;;;5060239;28;20419;-68
2021/11/17 17:32:33;;;;;;;41.87;28.50;;;9.70;99.90;;;;;;5065296;28;20455;-67
2021/11/17 17:34:58;;;;;;;50.33;32.30;;;9.70;99.90;;;;;;5067615;28;20396;-68
2021/11/17 17:37:24;;;;;;;42.63;29.47;;;9.70;99.90;;;;;;5054777;28;20525;-67
2021/11/17 17:39:51;;;;;;;54.27;33.33;;;9.70;99.90;;;;;;5049274;28;20166;-68
2021/11/17 17:42:19;;;;;;;56.73;37.83;;;9.80;99.90;;;;;;5034388;28;20182;-67
2021/11/17 17:44:46;;;;;;;55.73;34.87;;;9.80;99.90;;;;;;5034070;28;20460;-67
2021/11/17 17:47:12;;;;;;;52.13;33.77;;;9.80;99.90;;;;;;5034232;28;20761;-68
2021/11/17 17:49:37;;;;;;;54.90;35.50;;;9.80;99.90;;;;;;5049116;28;20418;-67
2021/11/17 17:52:06;;;;;;;57.07;38.57;;;9.80;99.90;;;;;;5034144;28;20165;-67
2021/11/17 17:54:32;;;;;;;51.03;34.17;;;9.80;99.90;;;;;;5034334;28;20177;-68
2021/11/17 17:56:58;;;;;;;55.40;34.60;;;9.80;99.90;;;;;;5034216;28;20921;-67
2021/11/17 17:59:24;;;;;;;59.70;35.53;;;9.70;99.90;;;;;;5047952;28;20444;-68
2021/11/17 18:01:50;;;;;;;58.00;36.63;;;9.70;99.90;;;;;;5053907;28;20750;-67
2021/11/17 18:04:16;;;;;;;58.80;35.43;;;9.70;99.90;;;;;;5053621;28;20697;-67
2021/11/17 18:06:41;;;;;;;64.27;37.17;;;9.70;99.90;;;;;;5034613;28;20421;-67
2021/11/17 18:09:08;;;;;;;61.53;34.60;;;9.70;99.90;;;;;;5033898;28;20419;-68
2021/11/17 18:11:35;;;;;;;57.30;36.40;;;9.70;99.90;;;;;;5033844;28;20282;-69
2021/11/17 18:14:01;;;;;;;59.07;36.27;;;9.70;99.90;;;;;;5033790;28;20874;-67
2021/11/17 18:16:26;;;;;;;51.83;33.93;;;9.70;99.90;;;;;;5033686;28;20884;-67
2021/11/17 18:18:52;;;;;;;55.83;33.93;;;9.70;99.90;;;;;;5033769;28;20398;-67
2021/11/17 18:21:21;;;;;;;52.77;37.20;;;9.70;99.90;;;;;;5033858;28;20188;-68
2021/11/17 18:23:48;;;;;;;56.63;38.80;;;9.70;99.90;;;;;;5051713;28;20182;-70
2021/11/17 18:26:19;;;;;;;52.30;35.10;;;9.70;99.90;;;;;;5051890;28;20401;-68
2021/11/17 18:28:45;;;;;;;48.20;35.50;;;9.70;99.90;;;;;;5038347;28;20438;-68
2021/11/17 18:31:12;;;;;;;54.27;37.40;;;9.70;99.90;;;;;;5050201;28;20428;-70
2021/11/17 18:33:38;;;;;;;55.83;35.90;;;9.70;99.90;;;;;;5051731;28;20189;-69
2021/11/17 18:36:06;;;;;;;51.77;34.33;;;9.70;99.90;;;;;;5051435;28;20416;-70
2021/11/17 18:38:32;;;;;;;53.23;34.13;;;9.70;99.90;;;;;;5050379;28;20424;-69
2021/11/17 18:40:57;;;;;;;60.73;36.10;;;9.70;99.90;;;;;;5033320;28;20433;-68
2021/11/17 18:43:24;;;;;;;54.73;35.07;;;9.70;99.90;;;;;;5033264;28;20905;-68
2021/11/17 18:45:53;;;;;;;48.60;35.23;;;9.70;99.90;;;;;;5033118;28;20188;-69
2021/11/17 18:48:20;;;;;;;60.20;37.20;;;9.70;99.90;;;;;;5032233;28;20402;-66
2021/11/17 18:50:50;;;;;;;54.70;36.27;;;9.70;99.90;;;;;;5047141;28;20428;-68
2021/11/17 18:53:18;;;;;;;58.73;37.70;;;9.70;99.90;;;;;;5052797;28;20422;-69
2021/11/17 18:55:45;;;;;;;57.37;36.13;;;9.70;99.90;;;;;;5049847;28;20522;-66
2021/11/17 18:58:11;;;;;;;54.27;36.67;;;9.70;99.90;;;;;;5032922;28;20410;-67
2021/11/17 19:03:22;;;;;;;54.87;37.30;;;9.70;99.90;;;;;;5089339;28;20566;-68
2021/11/17 19:05:47;;;;;;;54.17;36.30;;;9.70;99.90;;;;;;5089326;28;20459;-68